Time;durP1;ratioP1;P1;durP2;ratioP2;P2;SDS_P1;SDS_P2;PMS_P1;PMS_P2;Temp;Humidity;BMP_temperature;BMP_pressure;BME280_temperature;BME280_humidity;BME280_pressure;Samples;Min_cycle;Max_cycle;Signal;HPM_P1;HPM_P2
2022/03/09 00:00:06;;;;;;;5.27;4.77;;;6.40;57.00;;;;;;5055501;28;20173;-71
2022/03/09 00:02:32;;;;;;;5.87;4.80;;;6.40;56.80;;;;;;5054963;28;20175;-70
2022/03/09 00:04:57;;;;;;;5.47;4.87;;;6.50;56.90;;;;;;5055046;28;20767;-69
2022/03/09 00:07:23;;;;;;;10.13;6.93;;;6.50;56.80;;;;;;5054969;28;20224;-69
2022/03/09 00:09:48;;;;;;;9.67;5.17;;;6.50;56.60;;;;;;5055109;28;20197;-70
2022/03/09 00:12:14;;;;;;;5.13;4.63;;;6.50;56.50;;;;;;5054575;28;20198;-70
2022/03/09 00:14:39;;;;;;;6.83;4.97;;;6.50;56.60;;;;;;5054861;28;20178;-69
2022/03/09 00:17:05;;;;;;;6.43;4.97;;;6.50;56.50;;;;;;5054822;28;20545;-70
2022/03/09 00:19:30;;;;;;;6.50;5.40;;;6.40;56.60;;;;;;5054559;28;20173;-69
2022/03/09 00:21:56;;;;;;;7.07;5.60;;;6.50;56.60;;;;;;5054499;28;20171;-70
2022/03/09 00:24:22;;;;;;;8.23;4.83;;;6.50;56.80;;;;;;5054768;28;20701;-69
2022/03/09 00:26:48;;;;;;;7.10;5.03;;;6.40;56.60;;;;;;5055047;28;20546;-70
2022/03/09 00:29:14;;;;;;;5.00;4.60;;;6.50;56.60;;;;;;5054490;28;20412;-69
2022/03/09 00:31:39;;;;;;;5.03;4.60;;;6.50;56.50;;;;;;5055736;28;20440;-70
2022/03/09 00:34:05;;;;;;;5.30;4.77;;;6.50;56.30;;;;;;5055862;28;20206;-69
2022/03/09 00:36:30;;;;;;;5.80;5.20;;;6.50;56.20;;;;;;5054527;28;20174;-69
2022/03/09 00:38:56;;;;;;;5.73;4.73;;;6.40;56.20;;;;;;5055159;28;20167;-69
2022/03/09 00:41:22;;;;;;;6.23;4.80;;;6.50;56.50;;;;;;5055131;28;20181;-70
2022/03/09 00:43:47;;;;;;;5.43;4.40;;;6.40;56.20;;;;;;5059415;28;20199;-69
2022/03/09 00:46:13;;;;;;;8.07;5.57;;;6.50;56.20;;;;;;5077780;28;20421;-69
2022/03/09 00:48:39;;;;;;;6.70;4.83;;;6.40;56.20;;;;;;5073866;28;20169;-69
2022/03/09 00:51:06;;;;;;;5.30;4.80;;;6.40;56.60;;;;;;5074666;28;20455;-69
2022/03/09 00:53:31;;;;;;;6.73;5.37;;;6.40;56.10;;;;;;5077801;28;20465;-67
2022/03/09 00:55:57;;;;;;;6.40;5.20;;;6.30;56.00;;;;;;5066011;28;20486;-69
2022/03/09 00:58:23;;;;;;;7.20;5.23;;;6.30;56.00;;;;;;5054062;28;20186;-69
2022/03/09 01:00:48;;;;;;;6.53;4.80;;;6.30;56.20;;;;;;5053702;28;20186;-69
2022/03/09 01:03:15;;;;;;;7.23;4.53;;;6.30;56.00;;;;;;5053730;28;21099;-69
2022/03/09 01:05:40;;;;;;;6.30;5.27;;;6.40;56.10;;;;;;5053726;28;20277;-69
2022/03/09 01:08:06;;;;;;;5.53;5.00;;;6.20;56.40;;;;;;5053319;28;20921;-69
2022/03/09 01:10:32;;;;;;;7.57;4.73;;;6.30;56.50;;;;;;5053643;28;20420;-69
2022/03/09 01:12:57;;;;;;;6.37;4.57;;;6.20;56.30;;;;;;5053259;28;20555;-68
2022/03/09 01:15:23;;;;;;;6.10;4.87;;;6.20;56.50;;;;;;5053188;28;20193;-67
2022/03/09 01:17:48;;;;;;;6.40;4.93;;;6.20;56.40;;;;;;5053280;28;20300;-68
2022/03/09 01:20:14;;;;;;;6.13;4.93;;;6.20;56.20;;;;;;5053538;28;20554;-68
2022/03/09 01:22:40;;;;;;;6.27;5.57;;;6.20;56.30;;;;;;5052912;28;20177;-69
2022/03/09 01:25:06;;;;;;;6.90;5.00;;;6.20;56.20;;;;;;5053322;28;20200;-69
2022/03/09 01:27:32;;;;;;;7.30;5.27;;;6.30;56.40;;;;;;5051914;28;20196;-69
2022/03/09 01:29:57;;;;;;;4.80;4.40;;;6.30;56.50;;;;;;5053073;28;20411;-69
2022/03/09 01:32:23;;;;;;;6.23;5.33;;;6.30;56.30;;;;;;5052654;28;20209;-70
2022/03/09 01:34:49;;;;;;;6.90;5.67;;;6.30;56.20;;;;;;5052749;28;20297;-69
2022/03/09 01:37:15;;;;;;;5.90;4.83;;;6.30;56.10;;;;;;5052797;28;20228;-69
2022/03/09 01:39:40;;;;;;;8.13;5.33;;;6.30;56.70;;;;;;5052862;28;20413;-70
2022/03/09 01:42:06;;;;;;;6.10;5.50;;;6.40;56.10;;;;;;5052356;28;20547;-68
2022/03/09 01:44:32;;;;;;;5.13;4.63;;;6.40;56.10;;;;;;5052494;28;20199;-69
2022/03/09 01:46:58;;;;;;;5.20;4.77;;;6.30;56.30;;;;;;5052758;28;20406;-69
2022/03/09 01:49:24;;;;;;;6.63;5.40;;;6.30;56.50;;;;;;5052677;28;20186;-69
2022/03/09 01:51:53;;;;;;;7.67;5.37;;;6.30;56.50;;;;;;5052170;28;20205;-69
2022/03/09 01:54:19;;;;;;;7.20;5.40;;;6.30;56.40;;;;;;5052406;28;20451;-69
2022/03/09 01:56:46;;;;;;;5.10;4.60;;;6.20;56.40;;;;;;5051310;28;20475;-69
2022/03/09 01:59:14;;;;;;;7.10;4.80;;;6.30;56.40;;;;;;5052564;28;20543;-69
2022/03/09 02:01:41;;;;;;;5.70;4.83;;;6.20;56.30;;;;;;5052035;28;20417;-69
2022/03/09 02:04:07;;;;;;;7.17;5.60;;;6.20;56.40;;;;;;5052307;28;20525;-69
2022/03/09 02:06:34;;;;;;;5.80;5.00;;;6.20;56.50;;;;;;5052209;28;20487;-69
2022/03/09 02:11:46;;;;;;;6.10;4.73;;;6.20;56.20;;;;;;5051907;28;20455;-69
2022/03/09 02:14:42;;;;;;;5.73;4.70;;;6.20;56.50;;;;;;5052298;28;20432;-69
2022/03/09 02:17:20;;;;;;;5.80;4.77;;;6.20;56.50;;;;;;4989920;28;20427;-69
2022/03/09 02:19:48;;;;;;;7.40;5.40;;;6.20;56.40;;;;;;4990744;28;20429;-69
2022/03/09 02:22:24;;;;;;;10.80;6.10;;;6.10;56.40;;;;;;4990131;28;20415;-68
2022/03/09 02:24:51;;;;;;;8.07;5.23;;;6.10;56.40;;;;;;4990201;28;20523;-69
2022/03/09 02:27:20;;;;;;;5.53;4.97;;;6.10;56.50;;;;;;4990907;28;20416;-70
2022/03/09 02:29:46;;;;;;;6.23;5.00;;;6.10;56.50;;;;;;4990464;28;20426;-69
2022/03/09 02:32:12;;;;;;;6.30;5.67;;;6.10;56.60;;;;;;4990058;28;20831;-68
2022/03/09 02:34:37;;;;;;;5.90;5.30;;;6.10;56.50;;;;;;4990060;28;20470;-69
2022/03/09 02:37:03;;;;;;;10.97;5.83;;;6.10;56.70;;;;;;4990289;28;20284;-69
2022/03/09 02:39:28;;;;;;;6.57;5.33;;;6.10;56.70;;;;;;4990536;28;20258;-69
2022/03/09 02:41:54;;;;;;;8.53;4.80;;;6.00;56.70;;;;;;4990105;28;20672;-69
2022/03/09 02:44:19;;;;;;;7.40;5.03;;;6.00;56.70;;;;;;4990261;28;20680;-69
2022/03/09 02:46:45;;;;;;;7.10;5.00;;;6.00;56.80;;;;;;4990189;28;20653;-70
2022/03/09 02:49:10;;;;;;;7.03;5.60;;;6.00;56.70;;;;;;4990261;28;20173;-69
2022/03/09 02:51:36;;;;;;;7.33;5.30;;;6.00;56.70;;;;;;4989971;28;20210;-68
2022/03/09 02:54:02;;;;;;;6.13;5.20;;;6.00;56.80;;;;;;5034547;28;20225;-69
2022/03/09 02:56:27;;;;;;;10.40;5.33;;;5.90;56.70;;;;;;5051751;28;20166;-69
2022/03/09 02:58:53;;;;;;;5.83;4.87;;;6.00;56.80;;;;;;5050247;28;20189;-68
2022/03/09 03:01:19;;;;;;;7.43;4.87;;;5.90;56.70;;;;;;5051942;28;20201;-68
2022/03/09 03:03:45;;;;;;;5.67;5.17;;;5.90;56.70;;;;;;5051308;28;20255;-69
2022/03/09 03:06:12;;;;;;;5.73;4.50;;;5.90;56.80;;;;;;5051740;28;20216;-68
2022/03/09 03:08:38;;;;;;;6.97;5.40;;;5.90;56.70;;;;;;5051599;28;20461;-68
2022/03/09 03:11:05;;;;;;;6.47;5.77;;;5.90;56.70;;;;;;5051267;28;20559;-68
2022/03/09 03:13:30;;;;;;;6.77;5.37;;;5.90;56.90;;;;;;5051221;28;20433;-68
2022/03/09 03:15:56;;;;;;;7.00;5.23;;;5.90;57.00;;;;;;5051594;28;20405;-68
2022/03/09 03:18:22;;;;;;;6.40;5.00;;;5.80;56.90;;;;;;5051776;28;20181;-68
2022/03/09 03:20:49;;;;;;;5.83;4.60;;;5.80;57.00;;;;;;5051572;28;20184;-68
2022/03/09 03:23:14;;;;;;;6.17;5.57;;;5.80;57.00;;;;;;5050913;28;20681;-69
2022/03/09 03:25:40;;;;;;;8.47;5.33;;;5.80;57.20;;;;;;5051465;28;20413;-69
2022/03/09 03:28:06;;;;;;;5.70;5.03;;;5.80;57.20;;;;;;5051593;28;20572;-68
2022/03/09 03:30:31;;;;;;;7.43;5.60;;;5.80;57.30;;;;;;5055432;28;20178;-69
2022/03/09 03:32:57;;;;;;;5.53;4.70;;;5.80;57.20;;;;;;5054640;28;20174;-69
2022/03/09 03:35:22;;;;;;;6.67;5.33;;;5.70;57.20;;;;;;5055200;28;20198;-68
2022/03/09 03:37:48;;;;;;;7.53;5.47;;;5.70;57.10;;;;;;5055171;28;20181;-68
2022/03/09 03:40:14;;;;;;;10.20;5.90;;;5.70;57.20;;;;;;5054809;28;20628;-68
2022/03/09 03:42:39;;;;;;;6.40;5.77;;;5.70;57.40;;;;;;5055001;28;20189;-69
2022/03/09 03:45:05;;;;;;;10.60;6.23;;;5.60;57.20;;;;;;5055121;28;20459;-69
2022/03/09 03:47:31;;;;;;;6.67;5.43;;;5.60;57.30;;;;;;5055142;28;20699;-69
2022/03/09 03:49:56;;;;;;;6.53;5.40;;;5.60;57.50;;;;;;5054561;28;20495;-69
2022/03/09 03:52:22;;;;;;;6.03;5.43;;;5.60;57.40;;;;;;5054818;28;20194;-69
2022/03/09 03:54:47;;;;;;;8.73;5.80;;;5.50;57.40;;;;;;5054636;28;20194;-69
2022/03/09 03:57:13;;;;;;;8.10;5.73;;;5.50;57.60;;;;;;5054601;28;20185;-68
2022/03/09 03:59:38;;;;;;;7.47;5.60;;;5.50;58.00;;;;;;5054367;28;20198;-70
2022/03/09 04:02:04;;;;;;;7.03;5.97;;;5.50;57.70;;;;;;5055399;28;20201;-69
2022/03/09 04:04:29;;;;;;;7.43;4.90;;;5.50;57.90;;;;;;5055448;28;20240;-69
2022/03/09 04:06:55;;;;;;;7.80;5.67;;;5.50;57.90;;;;;;5055859;28;20185;-69
2022/03/09 04:09:21;;;;;;;8.00;5.60;;;5.40;57.80;;;;;;5055936;28;20651;-70
2022/03/09 04:11:46;;;;;;;6.97;5.40;;;5.40;57.80;;;;;;5055829;28;20273;-69
2022/03/09 04:14:12;;;;;;;7.53;5.27;;;5.40;57.70;;;;;;5055987;28;20463;-69
2022/03/09 04:16:37;;;;;;;7.40;5.97;;;5.40;57.80;;;;;;5056208;28;20166;-69
2022/03/09 04:19:03;;;;;;;10.37;5.50;;;5.40;57.80;;;;;;5055722;28;20220;-69
2022/03/09 04:21:28;;;;;;;8.57;5.77;;;5.40;57.90;;;;;;5056104;28;20223;-69
2022/03/09 04:23:54;;;;;;;12.10;6.03;;;5.40;57.90;;;;;;5056350;28;20205;-69
2022/03/09 04:26:20;;;;;;;8.30;5.47;;;5.30;58.30;;;;;;5055350;28;20205;-69
2022/03/09 04:28:45;;;;;;;7.30;5.90;;;5.30;58.00;;;;;;5056174;28;20182;-70
2022/03/09 04:31:11;;;;;;;8.20;6.20;;;5.30;57.90;;;;;;5056494;28;20231;-70
2022/03/09 04:33:36;;;;;;;6.40;5.80;;;5.30;57.90;;;;;;5056077;28;20213;-70
2022/03/09 04:36:03;;;;;;;8.03;6.17;;;5.30;57.90;;;;;;5057245;28;20655;-70
2022/03/09 04:38:28;;;;;;;15.17;6.80;;;5.20;57.90;;;;;;5056800;28;20197;-70
2022/03/09 04:40:54;;;;;;;9.77;5.73;;;5.20;58.10;;;;;;5057480;28;20413;-70
2022/03/09 04:43:19;;;;;;;6.90;5.57;;;5.20;58.10;;;;;;5058175;28;20209;-70
2022/03/09 04:45:45;;;;;;;7.63;5.10;;;5.20;58.00;;;;;;5074534;28;20166;-69
2022/03/09 04:48:11;;;;;;;7.37;5.47;;;5.20;58.00;;;;;;5079690;28;20186;-68
2022/03/09 04:50:36;;;;;;;7.03;5.30;;;5.20;58.10;;;;;;5079620;28;20184;-69
2022/03/09 04:53:02;;;;;;;7.73;5.30;;;5.20;58.30;;;;;;5079312;28;20186;-69
2022/03/09 04:55:28;;;;;;;5.93;5.30;;;5.20;58.30;;;;;;5079985;28;20218;-68
2022/03/09 04:57:54;;;;;;;8.70;6.00;;;5.20;58.10;;;;;;5079591;28;20209;-69
2022/03/09 05:00:19;;;;;;;5.30;4.80;;;5.10;58.20;;;;;;5060085;28;20420;-70
2022/03/09 05:02:45;;;;;;;6.30;5.07;;;5.20;58.30;;;;;;5055445;28;20170;-70
2022/03/09 05:05:10;;;;;;;6.90;5.37;;;5.10;58.10;;;;;;5054704;28;20194;-70
2022/03/09 05:07:42;;;;;;;10.47;5.73;;;5.20;58.40;;;;;;5054187;28;20216;-69
2022/03/09 05:10:10;;;;;;;9.33;5.57;;;5.10;58.20;;;;;;5054372;28;20163;-70
2022/03/09 05:12:35;;;;;;;6.60;5.43;;;5.10;58.40;;;;;;5053815;28;20646;-69
2022/03/09 05:15:02;;;;;;;7.30;6.20;;;5.10;58.40;;;;;;5054653;28;20506;-69
2022/03/09 05:17:27;;;;;;;6.27;5.50;;;5.10;58.50;;;;;;5054040;28;20185;-70
2022/03/09 05:19:53;;;;;;;9.87;6.20;;;5.10;58.40;;;;;;5053524;28;20409;-69
2022/03/09 05:22:18;;;;;;;9.70;5.97;;;5.10;58.40;;;;;;5053767;28;20256;-69
2022/03/09 05:24:44;;;;;;;8.00;5.00;;;5.10;58.40;;;;;;5053749;28;20200;-69
2022/03/09 05:27:09;;;;;;;9.60;5.70;;;5.10;58.20;;;;;;5053866;28;20174;-69
2022/03/09 05:29:35;;;;;;;9.23;6.20;;;5.10;58.40;;;;;;5053627;28;20603;-70
2022/03/09 05:32:01;;;;;;;7.10;6.27;;;5.10;58.40;;;;;;5053829;28;20197;-69
2022/03/09 05:34:26;;;;;;;10.90;5.90;;;5.10;58.40;;;;;;5053588;28;20496;-69
2022/03/09 05:36:53;;;;;;;9.87;6.17;;;5.10;58.40;;;;;;5053636;28;20166;-69
2022/03/09 05:39:18;;;;;;;8.33;6.10;;;5.10;58.50;;;;;;5054654;28;20181;-69
2022/03/09 05:41:44;;;;;;;7.20;5.77;;;5.10;58.50;;;;;;5054653;28;20436;-69
2022/03/09 05:44:09;;;;;;;6.50;5.70;;;5.10;58.60;;;;;;5053803;28;20240;-69
2022/03/09 05:46:35;;;;;;;8.70;5.83;;;5.10;58.60;;;;;;5053142;28;20167;-69
2022/03/09 05:49:01;;;;;;;6.90;5.77;;;5.10;58.70;;;;;;5052710;28;20167;-69
2022/03/09 05:51:27;;;;;;;7.50;5.83;;;5.10;58.70;;;;;;5052393;28;20225;-69
2022/03/09 05:53:53;;;;;;;9.93;6.50;;;5.00;58.60;;;;;;5053204;28;20463;-69
2022/03/09 05:56:18;;;;;;;7.70;5.80;;;5.10;58.70;;;;;;5053125;28;20202;-69
2022/03/09 05:58:44;;;;;;;7.93;5.70;;;5.10;58.60;;;;;;5053099;28;20174;-69
2022/03/09 06:01:09;;;;;;;7.60;6.60;;;5.10;58.70;;;;;;5052931;28;20174;-69
2022/03/09 06:03:35;;;;;;;7.80;6.13;;;5.10;58.80;;;;;;5052996;28;20688;-69
2022/03/09 06:06:00;;;;;;;7.83;6.07;;;5.10;58.90;;;;;;5052815;28;20223;-70
2022/03/09 06:08:26;;;;;;;10.73;7.20;;;5.10;58.80;;;;;;5052847;28;20315;-69
2022/03/09 06:10:52;;;;;;;7.03;5.93;;;5.10;58.70;;;;;;5053052;28;20206;-70
2022/03/09 06:13:18;;;;;;;8.17;5.67;;;5.10;58.80;;;;;;5052944;28;20787;-69
2022/03/09 06:15:44;;;;;;;6.63;5.77;;;5.10;58.80;;;;;;5053257;28;20181;-69
2022/03/09 06:18:10;;;;;;;8.07;6.07;;;5.10;58.80;;;;;;5052896;28;20256;-69
2022/03/09 06:20:36;;;;;;;14.00;6.37;;;5.10;58.80;;;;;;5053943;28;20447;-70
2022/03/09 06:23:02;;;;;;;9.00;5.73;;;5.10;59.00;;;;;;5054090;28;20178;-70
2022/03/09 06:25:27;;;;;;;6.50;5.73;;;5.10;58.90;;;;;;5053563;28;20171;-70
2022/03/09 06:27:53;;;;;;;9.50;5.83;;;5.00;58.80;;;;;;5053622;28;20422;-70
2022/03/09 06:30:19;;;;;;;9.10;6.50;;;4.90;58.90;;;;;;5054747;28;20631;-70
2022/03/09 06:32:46;;;;;;;7.00;6.30;;;5.00;59.20;;;;;;5054986;28;20341;-70
2022/03/09 06:35:13;;;;;;;6.90;6.10;;;4.90;59.00;;;;;;5055473;28;20210;-70
2022/03/09 06:37:39;;;;;;;8.10;6.00;;;4.90;59.10;;;;;;5055721;28;20419;-70
2022/03/09 06:40:06;;;;;;;7.70;6.67;;;4.80;59.20;;;;;;5055398;28;20868;-70
2022/03/09 06:42:32;;;;;;;8.90;5.90;;;4.90;59.50;;;;;;5053379;28;20441;-70
2022/03/09 06:44:58;;;;;;;7.37;5.80;;;4.90;59.40;;;;;;5029804;28;20468;-70
2022/03/09 06:47:24;;;;;;;9.43;7.33;;;5.00;59.30;;;;;;5052892;28;20456;-70
2022/03/09 06:49:50;;;;;;;8.83;6.90;;;5.00;59.50;;;;;;5058340;28;20460;-70
2022/03/09 06:52:16;;;;;;;12.93;8.13;;;5.10;59.30;;;;;;5053921;28;20602;-69
2022/03/09 06:54:41;;;;;;;8.97;7.10;;;5.10;59.30;;;;;;5059572;28;20495;-70
2022/03/09 06:57:07;;;;;;;7.80;6.07;;;5.20;59.50;;;;;;5061621;28;20209;-70
2022/03/09 06:59:33;;;;;;;10.87;6.70;;;5.10;59.20;;;;;;5061522;28;20736;-70
2022/03/09 07:01:58;;;;;;;9.40;6.13;;;5.20;59.30;;;;;;5060385;28;20216;-71
2022/03/09 07:04:24;;;;;;;7.67;6.23;;;5.20;59.10;;;;;;5057258;28;20197;-71
2022/03/09 07:06:50;;;;;;;6.07;5.30;;;5.30;59.60;;;;;;5058618;28;20202;-70
2022/03/09 07:09:15;;;;;;;12.23;6.00;;;5.30;59.00;;;;;;5061697;28;20214;-70
2022/03/09 07:11:41;;;;;;;12.80;6.80;;;5.40;59.20;;;;;;5054078;28;20284;-70
2022/03/09 07:14:07;;;;;;;6.80;5.70;;;5.40;59.10;;;;;;5052207;28;20282;-69
2022/03/09 07:16:33;;;;;;;8.80;6.10;;;5.50;58.90;;;;;;5053999;28;20256;-70
2022/03/09 07:18:59;;;;;;;8.67;6.23;;;5.50;58.90;;;;;;5056163;28;20471;-70
2022/03/09 07:21:24;;;;;;;8.60;6.70;;;5.50;59.00;;;;;;5055046;28;20409;-70
2022/03/09 07:23:50;;;;;;;8.60;6.27;;;5.60;58.90;;;;;;5055666;28;20205;-70
2022/03/09 07:26:16;;;;;;;7.97;6.10;;;5.60;59.00;;;;;;5056530;28;20174;-71
2022/03/09 07:28:41;;;;;;;7.33;6.17;;;5.70;59.40;;;;;;5054822;28;20217;-71
2022/03/09 07:31:07;;;;;;;9.33;6.70;;;5.70;58.70;;;;;;5055694;28;20217;-71
2022/03/09 07:33:32;;;;;;;7.83;5.80;;;5.70;58.50;;;;;;5055388;28;20220;-71
2022/03/09 07:36:00;;;;;;;7.63;5.87;;;5.80;58.60;;;;;;5056866;28;20171;-70
2022/03/09 07:38:25;;;;;;;9.43;5.70;;;5.90;58.40;;;;;;5056772;28;20182;-71
2022/03/09 07:40:51;;;;;;;7.53;6.73;;;5.90;58.20;;;;;;5056775;28;20496;-71
2022/03/09 07:43:17;;;;;;;8.70;6.77;;;6.00;58.20;;;;;;5056677;28;20803;-71
2022/03/09 07:45:42;;;;;;;8.97;6.27;;;6.10;58.10;;;;;;5056686;28;20201;-71
2022/03/09 07:48:08;;;;;;;8.13;5.73;;;6.10;58.20;;;;;;5057036;28;20173;-71
2022/03/09 07:50:34;;;;;;;8.80;6.30;;;6.20;58.20;;;;;;5057483;28;20849;-71
2022/03/09 07:53:00;;;;;;;8.73;6.67;;;6.30;58.10;;;;;;5055884;28;20466;-71
2022/03/09 07:55:25;;;;;;;7.20;6.40;;;6.30;57.80;;;;;;5059984;28;20175;-71
2022/03/09 07:57:51;;;;;;;9.97;6.13;;;6.30;57.90;;;;;;5058635;28;20478;-69
2022/03/09 08:00:17;;;;;;;8.03;6.97;;;6.40;57.70;;;;;;5059686;28;20229;-70
2022/03/09 08:02:43;;;;;;;9.67;8.10;;;6.40;57.50;;;;;;5057873;28;20183;-70
2022/03/09 08:05:08;;;;;;;8.93;7.20;;;6.50;57.20;;;;;;5061802;28;20202;-70
2022/03/09 08:07:34;;;;;;;11.87;6.40;;;6.50;57.20;;;;;;5062316;28;20427;-70
2022/03/09 08:10:00;;;;;;;8.90;7.17;;;6.60;56.90;;;;;;5067638;28;20178;-71
2022/03/09 08:12:27;;;;;;;8.13;6.00;;;6.60;56.40;;;;;;5072440;28;20187;-70
2022/03/09 08:14:53;;;;;;;11.73;6.63;;;6.70;57.10;;;;;;5077146;28;20177;-70
2022/03/09 08:17:19;;;;;;;7.53;6.10;;;6.70;56.20;;;;;;5060895;28;20395;-69
2022/03/09 08:19:45;;;;;;;7.80;6.57;;;6.70;56.30;;;;;;5077806;28;20473;-68
2022/03/09 08:22:10;;;;;;;8.77;6.83;;;6.80;56.60;;;;;;5080914;28;20409;-68
2022/03/09 08:24:36;;;;;;;7.10;6.40;;;6.90;56.20;;;;;;5080541;28;20182;-69
2022/03/09 08:27:02;;;;;;;8.23;6.37;;;7.00;55.80;;;;;;5080436;28;20162;-70
2022/03/09 08:29:28;;;;;;;9.17;6.60;;;7.00;55.40;;;;;;5080501;28;20175;-69
2022/03/09 08:31:53;;;;;;;9.93;6.63;;;7.10;55.30;;;;;;5078694;28;20460;-70
2022/03/09 08:34:19;;;;;;;10.40;7.00;;;7.20;55.30;;;;;;5066262;28;20225;-72
2022/03/09 08:36:44;;;;;;;8.33;6.37;;;7.20;55.50;;;;;;5057427;28;20187;-72
2022/03/09 08:39:10;;;;;;;8.77;6.60;;;7.30;55.80;;;;;;5055925;28;20182;-71
2022/03/09 08:41:36;;;;;;;8.80;5.87;;;7.40;55.50;;;;;;5038122;28;20259;-71
2022/03/09 08:44:02;;;;;;;7.60;6.20;;;7.50;54.30;;;;;;5055797;28;20205;-69
2022/03/09 08:46:28;;;;;;;8.70;6.60;;;7.60;54.50;;;;;;5058149;28;20703;-71
2022/03/09 08:48:53;;;;;;;12.07;7.07;;;7.70;54.40;;;;;;5055245;28;20424;-71
2022/03/09 08:51:21;;;;;;;8.43;6.57;;;7.80;54.30;;;;;;5056202;28;20211;-70
2022/03/09 08:53:47;;;;;;;7.77;6.80;;;7.80;54.30;;;;;;5054554;28;20197;-70
2022/03/09 08:56:13;;;;;;;9.80;7.13;;;7.90;54.20;;;;;;5055095;28;20571;-71
2022/03/09 08:58:38;;;;;;;8.80;6.57;;;8.00;54.00;;;;;;5054754;28;20439;-70
2022/03/09 09:01:04;;;;;;;11.10;6.80;;;8.10;54.10;;;;;;5054581;28;20181;-70
2022/03/09 09:03:30;;;;;;;7.07;6.10;;;8.20;54.10;;;;;;5055645;28;20197;-70
2022/03/09 09:05:55;;;;;;;7.97;7.00;;;8.20;53.90;;;;;;5055672;28;20953;-70
2022/03/09 09:08:21;;;;;;;12.03;6.93;;;8.30;53.70;;;;;;5054718;28;20184;-70
2022/03/09 09:10:48;;;;;;;7.80;5.90;;;8.30;53.80;;;;;;5054508;28;20178;-70
2022/03/09 09:13:14;;;;;;;8.90;6.80;;;8.40;53.40;;;;;;5054041;28;20256;-70
2022/03/09 09:15:40;;;;;;;8.87;7.13;;;8.50;53.20;;;;;;5053701;28;20462;-70
2022/03/09 09:18:09;;;;;;;7.63;6.77;;;8.60;52.60;;;;;;5058612;28;20501;-70
2022/03/09 09:20:35;;;;;;;7.23;6.37;;;8.60;52.30;;;;;;5077116;28;20428;-70
2022/03/09 09:23:01;;;;;;;11.80;7.30;;;8.70;52.30;;;;;;5077900;28;20427;-70
2022/03/09 09:25:28;;;;;;;9.57;6.90;;;8.80;52.10;;;;;;5077774;28;20495;-71
2022/03/09 09:27:55;;;;;;;8.93;7.00;;;8.90;52.20;;;;;;5078729;28;20413;-68
2022/03/09 09:30:21;;;;;;;8.93;7.20;;;8.90;52.30;;;;;;5069500;28;20481;-71
2022/03/09 09:32:47;;;;;;;8.10;6.60;;;9.00;52.70;;;;;;5056110;28;20466;-70
2022/03/09 09:35:14;;;;;;;8.17;6.83;;;9.10;52.50;;;;;;5056481;28;20452;-71
2022/03/09 09:37:40;;;;;;;7.20;6.50;;;9.20;52.20;;;;;;5055875;28;20456;-71
2022/03/09 09:40:07;;;;;;;9.13;6.53;;;9.30;51.90;;;;;;5076367;28;20409;-70
2022/03/09 09:42:39;;;;;;;8.10;7.30;;;9.20;52.10;;;;;;5077002;28;20404;-70
2022/03/09 09:45:07;;;;;;;9.43;7.03;;;9.30;52.40;;;;;;5078021;28;20447;-70
2022/03/09 09:47:33;;;;;;;8.50;7.17;;;9.40;52.50;;;;;;5077276;28;20413;-69
2022/03/09 09:50:01;;;;;;;11.43;7.27;;;9.60;52.60;;;;;;5074266;28;20432;-70
2022/03/09 09:52:34;;;;;;;13.17;7.27;;;9.60;52.00;;;;;;5058190;28;20468;-69
2022/03/09 09:55:02;;;;;;;8.57;7.40;;;9.70;51.80;;;;;;5057238;28;20523;-70
2022/03/09 09:57:29;;;;;;;13.20;7.63;;;9.80;51.80;;;;;;5053013;28;20460;-70
2022/03/09 09:59:56;;;;;;;8.00;6.43;;;9.80;51.60;;;;;;5057995;28;20412;-70
2022/03/09 10:02:22;;;;;;;8.40;7.30;;;9.90;51.60;;;;;;5055762;28;20417;-70
2022/03/09 10:04:50;;;;;;;7.60;6.80;;;10.00;50.40;;;;;;5053945;28;20437;-71
2022/03/09 10:07:17;;;;;;;9.17;7.43;;;10.00;50.20;;;;;;5053476;28;20417;-70
2022/03/09 10:09:43;;;;;;;12.93;7.30;;;10.10;49.90;;;;;;5053396;28;20421;-71
2022/03/09 10:12:10;;;;;;;8.73;7.50;;;10.10;49.90;;;;;;5053193;28;20839;-71
2022/03/09 10:14:51;;;;;;;9.77;7.20;;;10.20;49.90;;;;;;5053707;28;20486;-71
2022/03/09 10:17:25;;;;;;;8.70;6.97;;;10.30;50.10;;;;;;5053376;28;20397;-70
2022/03/09 10:19:54;;;;;;;9.10;7.50;;;10.40;50.10;;;;;;5053072;28;20460;-71
2022/03/09 10:22:32;;;;;;;9.57;7.00;;;10.40;49.50;;;;;;5053382;28;20972;-71
2022/03/09 10:25:10;;;;;;;9.17;7.73;;;10.50;49.00;;;;;;5054080;28;20452;-70
2022/03/09 10:27:43;;;;;;;8.93;7.40;;;10.50;48.90;;;;;;5053744;28;20416;-71
2022/03/09 10:30:15;;;;;;;9.80;7.30;;;10.50;49.10;;;;;;5053521;28;20472;-71
2022/03/09 10:32:58;;;;;;;9.70;7.70;;;10.60;49.50;;;;;;5052926;28;20460;-71
2022/03/09 10:35:29;;;;;;;7.83;7.03;;;10.70;49.50;;;;;;5053081;28;20401;-71
2022/03/09 10:38:14;;;;;;;10.20;6.97;;;10.80;49.20;;;;;;5052613;28;20405;-71
2022/03/09 10:40:44;;;;;;;10.83;7.57;;;10.90;49.10;;;;;;5052514;28;20397;-71
2022/03/09 10:43:21;;;;;;;8.63;7.43;;;10.90;48.40;;;;;;5053874;28;20405;-71
2022/03/09 10:46:03;;;;;;;13.20;9.10;;;11.00;48.70;;;;;;5067180;28;20416;-70
2022/03/09 10:49:00;;;;;;;9.63;7.80;;;11.10;48.50;;;;;;5053236;28;20442;-71
2022/03/09 10:51:37;;;;;;;8.90;7.93;;;11.20;48.60;;;;;;5051669;28;20456;-71
2022/03/09 10:54:16;;;;;;;8.20;7.33;;;11.30;48.50;;;;;;5053301;28;20792;-71
2022/03/09 10:56:42;;;;;;;8.73;7.27;;;11.30;47.90;;;;;;5053536;28;20483;-71
2022/03/09 10:59:16;;;;;;;16.43;8.20;;;11.40;48.00;;;;;;5053201;28;20416;-71
2022/03/09 11:01:43;;;;;;;9.90;8.40;;;11.50;48.30;;;;;;5053306;28;20397;-71
2022/03/09 11:04:17;;;;;;;10.03;8.27;;;11.40;48.50;;;;;;5053141;28;20511;-71
2022/03/09 11:06:46;;;;;;;10.60;7.63;;;11.50;48.00;;;;;;5052693;28;20408;-72
2022/03/09 11:09:19;;;;;;;10.27;8.07;;;11.70;47.60;;;;;;5054040;28;20932;-71
2022/03/09 11:11:46;;;;;;;13.70;8.93;;;11.70;46.90;;;;;;5053145;28;20901;-71
2022/03/09 11:14:13;;;;;;;10.13;8.30;;;11.70;46.80;;;;;;5053520;28;20806;-71
2022/03/09 11:16:39;;;;;;;10.10;8.50;;;11.70;46.90;;;;;;5053147;28;20412;-71
2022/03/09 11:19:06;;;;;;;9.77;8.23;;;11.90;47.60;;;;;;5053279;28;20436;-72
2022/03/09 11:21:31;;;;;;;8.77;7.40;;;11.90;47.30;;;;;;5052737;28;20423;-72
2022/03/09 11:23:58;;;;;;;9.83;8.13;;;11.80;46.10;;;;;;5053039;28;20432;-72
2022/03/09 11:26:28;;;;;;;10.47;8.37;;;11.90;45.80;;;;;;5053244;28;20176;-72
2022/03/09 11:29:02;;;;;;;9.40;7.90;;;12.00;45.70;;;;;;5053413;28;20405;-72
2022/03/09 11:31:52;;;;;;;10.20;7.63;;;12.10;46.00;;;;;;5053842;28;20474;-72
2022/03/09 11:34:34;;;;;;;11.40;8.07;;;12.10;46.20;;;;;;5052744;28;20449;-71
2022/03/09 11:37:06;;;;;;;10.80;7.77;;;12.10;45.60;;;;;;5053268;28;20406;-72
2022/03/09 11:39:33;;;;;;;10.47;9.23;;;12.10;45.30;;;;;;5053768;28;20400;-72
2022/03/09 11:42:20;;;;;;;9.57;7.87;;;12.10;44.70;;;;;;5052771;28;20415;-72
2022/03/09 11:44:46;;;;;;;10.00;8.83;;;12.20;45.00;;;;;;5052240;28;20463;-71
2022/03/09 11:47:12;;;;;;;11.70;8.70;;;12.10;44.50;;;;;;5052272;28;20466;-71
2022/03/09 11:49:50;;;;;;;9.47;7.90;;;12.20;45.30;;;;;;5053274;28;20409;-71
2022/03/09 11:52:21;;;;;;;8.50;7.60;;;12.30;44.50;;;;;;5055490;28;20440;-71
2022/03/09 11:54:59;;;;;;;9.97;8.30;;;12.30;44.40;;;;;;5054973;28;20424;-71
2022/03/09 11:57:45;;;;;;;10.07;9.07;;;12.30;44.70;;;;;;5047939;28;20444;-71
2022/03/09 12:00:18;;;;;;;11.00;9.50;;;12.20;44.20;;;;;;5021390;28;20421;-71
2022/03/09 12:02:47;;;;;;;11.53;9.80;;;12.10;44.20;;;;;;5037371;28;20913;-71
2022/03/09 12:05:42;;;;;;;10.17;8.27;;;12.20;44.60;;;;;;5054913;28;20931;-71
2022/03/09 12:08:10;;;;;;;12.30;9.03;;;12.20;43.90;;;;;;4954189;29;20421;-71
2022/03/09 12:10:46;;;;;;;9.60;8.60;;;12.10;44.00;;;;;;4954096;29;20487;-71
2022/03/09 12:13:11;;;;;;;10.17;8.57;;;12.10;44.50;;;;;;4954307;28;20464;-71
2022/03/09 12:16:12;;;;;;;10.73;9.20;;;12.20;44.80;;;;;;4956184;29;20412;-71
2022/03/09 12:18:45;;;;;;;11.37;9.13;;;12.30;44.50;;;;;;4955489;29;20212;-71
2022/03/09 12:21:13;;;;;;;12.13;9.03;;;12.20;44.50;;;;;;4955178;29;20508;-71
2022/03/09 12:24:00;;;;;;;11.90;9.30;;;12.30;44.70;;;;;;4953172;28;20472;-71
2022/03/09 12:26:45;;;;;;;12.33;9.03;;;12.30;44.70;;;;;;4955090;29;20405;-71
2022/03/09 12:29:28;;;;;;;11.70;9.80;;;12.40;45.00;;;;;;4955001;29;20856;-69
2022/03/09 12:32:13;;;;;;;8.63;7.17;;;12.30;44.50;;;;;;4954914;29;20520;-69
2022/03/09 12:34:46;;;;;;;10.33;9.07;;;12.30;45.00;;;;;;4955780;29;20445;-70
2022/03/09 12:37:18;;;;;;;11.17;9.13;;;12.30;44.90;;;;;;4956212;29;20417;-70
2022/03/09 12:39:55;;;;;;;10.70;8.13;;;12.20;44.60;;;;;;4954957;28;21242;-70
2022/03/09 12:42:22;;;;;;;9.73;8.53;;;12.10;44.60;;;;;;4956569;29;20448;-71
2022/03/09 12:44:49;;;;;;;11.47;8.73;;;12.00;44.50;;;;;;5031161;28;20463;-70
2022/03/09 12:47:18;;;;;;;14.20;8.90;;;12.00;45.30;;;;;;5072002;28;20447;-69
2022/03/09 12:49:46;;;;;;;10.53;9.43;;;12.00;45.50;;;;;;5068007;28;20455;-69
2022/03/09 12:52:17;;;;;;;10.17;8.83;;;12.10;45.20;;;;;;5063237;28;20471;-70
2022/03/09 12:54:54;;;;;;;10.90;8.93;;;12.10;44.60;;;;;;5053831;28;20560;-70
2022/03/09 12:57:23;;;;;;;10.37;8.40;;;11.90;44.60;;;;;;5054442;28;20456;-70